Time;durP1;ratioP1;P1;durP2;ratioP2;P2;SDS_P1;SDS_P2;PMS_P1;PMS_P2;Temp;Humidity;BMP_temperature;BMP_pressure;BME280_temperature;BME280_humidity;BME280_pressure;Samples;Min_cycle;Max_cycle;Signal;HPM_P1;HPM_P2
2022/07/14 00:04:10;;;;;;;9.10;6.70;;;;;;;20.07;95.64;100107.41;655488;1284;138941;-86
2022/07/14 00:19:14;;;;;;;8.20;6.50;;;;;;;19.88;96.44;100094.95;655222;1284;138305;-86
2022/07/14 00:34:17;;;;;;;9.90;6.80;;;;;;;19.70;97.51;100084.67;653178;1284;139672;-86
2022/07/14 00:49:37;;;;;;;8.80;7.10;;;;;;;19.50;98.66;100093.48;654742;1284;138560;-87
2022/07/14 01:04:40;;;;;;;11.00;7.70;;;;;;;19.38;100.00;100098.88;653330;1283;138660;-86
2022/07/14 01:19:47;;;;;;;9.30;7.60;;;;;;;19.50;100.00;100096.35;652077;1284;139095;-86
2022/07/14 01:34:50;;;;;;;9.70;8.30;;;;;;;19.45;100.00;100086.98;655749;1277;139665;-85
2022/07/14 01:49:53;;;;;;;8.50;7.50;;;;;;;19.39;100.00;100088.95;655725;1277;139211;-86
2022/07/14 02:04:57;;;;;;;10.80;8.50;;;;;;;19.24;100.00;100095.42;655789;1277;140177;-86
2022/07/14 02:20:00;;;;;;;10.60;7.20;;;;;;;18.99;100.00;100103.42;655410;1277;139663;-86
2022/07/14 02:35:04;;;;;;;8.90;7.10;;;;;;;18.85;100.00;100110.95;655509;1277;139025;-87
2022/07/14 02:50:07;;;;;;;10.70;8.00;;;;;;;18.68;100.00;100115.86;655432;1280;139400;-86
2022/07/14 03:05:14;;;;;;;7.70;6.70;;;;;;;18.66;100.00;100126.79;655634;1280;139348;-87
2022/07/14 03:20:19;;;;;;;8.50;6.40;;;;;;;18.63;100.00;100120.84;655482;1280;139241;-86
2022/07/14 03:35:22;;;;;;;11.10;7.70;;;;;;;18.57;100.00;100131.98;656427;1277;139534;-87
2022/07/14 03:50:26;;;;;;;12.40;7.30;;;;;;;18.42;100.00;100149.34;656585;1277;139343;-86
2022/07/14 04:05:32;;;;;;;10.40;7.10;;;;;;;18.49;100.00;100166.73;657143;1278;138983;-87
2022/07/14 04:20:51;;;;;;;10.00;6.00;;;;;;;18.78;100.00;100172.75;657352;1279;139748;-87
2022/07/14 04:35:56;;;;;;;9.60;4.50;;;;;;;19.16;100.00;100182.34;655889;1277;139182;-88
2022/07/14 05:06:21;;;;;;;7.40;3.60;;;;;;;19.66;100.00;100190.52;656252;1277;138960;-88
2022/07/14 05:21:26;;;;;;;6.30;3.60;;;;;;;19.78;100.00;100185.44;661845;1277;138974;-86
2022/07/14 05:36:30;;;;;;;8.70;3.50;;;;;;;19.99;97.42;100184.83;660367;1277;139077;-86
2022/07/14 05:51:35;;;;;;;10.00;2.40;;;;;;;20.15;90.36;100186.08;656271;1280;139811;-87
2022/07/14 06:06:39;;;;;;;8.40;2.30;;;;;;;20.33;84.27;100183.54;656048;1277;138963;-86
2022/07/14 06:21:43;;;;;;;11.30;2.30;;;;;;;20.77;82.61;100186.73;654918;1280;139569;-86
2022/07/14 06:36:46;;;;;;;6.60;2.20;;;;;;;20.69;75.56;100209.43;656870;1277;139961;-85
2022/07/14 06:51:49;;;;;;;10.00;2.10;;;;;;;20.69;76.32;100212.74;656586;1280;373986;-88
2022/07/14 07:06:58;;;;;;;6.40;1.90;;;;;;;21.39;76.17;100218.45;657198;1277;138751;-86
2022/07/14 07:22:02;;;;;;;6.80;2.30;;;;;;;21.64;72.85;100223.89;656845;1277;139223;-87
2022/07/14 07:37:06;;;;;;;9.80;2.20;;;;;;;22.34;72.05;100215.98;658086;1277;140705;-85
2022/07/14 07:52:28;;;;;;;6.70;2.30;;;;;;;22.17;71.42;100230.04;658005;1277;139318;-84
2022/07/14 08:07:31;;;;;;;5.40;2.00;;;;;;;22.45;68.69;100223.77;658295;1280;137823;-83
2022/07/14 08:22:36;;;;;;;7.20;2.00;;;;;;;22.67;66.27;100229.70;658645;1277;137958;-83
2022/07/14 08:37:40;;;;;;;8.20;2.00;;;;;;;23.33;63.05;100241.50;658675;1277;138328;-85
2022/07/14 08:52:44;;;;;;;3.90;1.50;;;;;;;23.85;61.61;100249.92;657136;1277;139711;-84
2022/07/14 09:07:56;;;;;;;3.20;1.30;;;;;;;24.19;57.55;100259.34;657821;1277;137896;-81
2022/07/14 09:23:02;;;;;;;4.40;1.50;;;;;;;24.35;56.34;100237.23;659022;1277;138706;-82
2022/07/14 09:38:23;;;;;;;3.80;1.40;;;;;;;25.01;56.51;100236.55;655696;1277;138784;-84
2022/07/14 09:53:32;;;;;;;4.30;1.60;;;;;;;25.55;55.48;100229.60;657687;1277;139704;-84
2022/07/14 10:08:40;;;;;;;4.40;1.40;;;;;;;25.44;55.29;100224.17;655836;1277;139160;-81
2022/07/14 10:23:45;;;;;;;5.40;1.60;;;;;;;25.90;54.86;100202.09;657462;1277;139522;-82
2022/07/14 10:39:22;;;;;;;4.90;1.70;;;;;;;26.88;54.35;100205.27;657470;1277;139912;-81
2022/07/14 10:54:30;;;;;;;5.00;1.60;;;;;;;26.98;50.63;100200.88;655624;1280;138003;-81
2022/07/14 11:09:49;;;;;;;3.50;1.20;;;;;;;27.11;49.74;100194.80;656983;1279;138287;-91
2022/07/14 11:25:00;;;;;;;4.90;1.30;;;;;;;27.04;48.28;100192.92;657519;1280;139394;-82
2022/07/14 11:40:43;;;;;;;3.50;1.20;;;;;;;27.35;49.80;100182.75;656483;1278;138640;-83
2022/07/14 11:55:47;;;;;;;4.10;1.00;;;;;;;27.05;47.62;100183.04;656842;1279;138905;-83
2022/07/14 12:10:51;;;;;;;2.00;1.20;;;;;;;27.39;47.21;100186.08;656795;1279;138205;-83
2022/07/14 12:26:00;;;;;;;18.90;6.20;;;;;;;28.13;47.29;100190.32;656405;1279;24317;-85
2022/07/14 12:41:09;;;;;;;4.20;1.40;;;;;;;28.74;45.98;100181.89;656984;1279;22547;-83
2022/07/14 12:56:16;;;;;;;2.10;0.80;;;;;;;28.33;45.59;100178.27;662449;1278;22628;-84
2022/07/14 13:11:27;;;;;;;4.20;1.00;;;;;;;27.99;46.57;100172.32;662703;1278;22602;-82
2022/07/14 13:26:31;;;;;;;3.80;1.40;;;;;;;27.41;46.53;100166.07;661441;1279;24269;-80
2022/07/14 13:41:36;;;;;;;2.50;0.70;;;;;;;26.82;47.33;100155.49;661401;1278;25382;-84
2022/07/14 13:56:41;;;;;;;2.10;1.30;;;;;;;27.08;46.94;100150.77;658705;1280;22543;-83
2022/07/14 14:11:45;;;;;;;5.30;1.10;;;;;;;27.01;47.02;100147.34;657877;1279;25437;-83
2022/07/14 14:26:51;;;;;;;3.40;1.40;;;;;;;26.51;47.95;100154.27;655304;1280;138468;-81
2022/07/14 14:41:54;;;;;;;5.60;2.30;;;;;;;26.15;48.03;100140.48;656538;1280;138101;-83
2022/07/14 14:56:58;;;;;;;2.70;1.60;;;;;;;26.97;48.15;100125.90;656368;1279;138571;-82
2022/07/14 15:12:02;;;;;;;18.20;10.00;;;;;;;26.97;47.96;100126.40;658617;1280;138819;-84
2022/07/14 15:27:08;;;;;;;3.90;2.30;;;;;;;26.62;48.23;100115.65;662914;1279;139581;-83
2022/07/14 15:42:16;;;;;;;3.40;1.40;;;;;;;26.20;48.36;100115.89;656181;1279;139209;-82
2022/07/14 15:57:20;;;;;;;4.20;2.00;;;;;;;26.31;48.98;100110.01;656574;1279;141083;-81
2022/07/14 16:12:24;;;;;;;6.70;2.90;;;;;;;27.17;49.12;100103.73;678968;1279;137729;-82
2022/07/14 16:27:29;;;;;;;3.00;1.20;;;;;;;27.08;48.28;100102.16;678718;1279;139541;-82
2022/07/14 16:42:36;;;;;;;8.10;1.80;;;;;;;25.81;48.86;100098.08;678486;1279;138560;-82
2022/07/14 16:57:40;;;;;;;5.10;2.00;;;;;;;25.19;50.37;100087.34;678816;1278;139518;-83
2022/07/14 17:12:43;;;;;;;8.70;4.10;;;;;;;25.06;51.01;100081.58;678095;1279;139147;-85
2022/07/14 17:27:47;;;;;;;4.70;1.80;;;;;;;24.68;51.89;100071.85;678854;1279;139376;-83
2022/07/14 17:42:50;;;;;;;2.70;1.20;;;;;;;24.06;52.92;100067.91;679133;1278;138172;-84
2022/07/14 17:57:55;;;;;;;8.40;1.50;;;;;;;23.61;53.85;100058.10;678198;1280;137761;-83
2022/07/14 18:12:58;;;;;;;7.50;2.70;;;;;;;23.19;54.82;100050.86;678782;1278;137654;-83
2022/07/14 18:28:02;;;;;;;10.20;3.50;;;;;;;22.76;55.96;100057.06;678516;1280;137775;-82
2022/07/14 18:43:05;;;;;;;6.60;2.30;;;;;;;22.45;56.97;100057.36;678551;1279;138592;-83
2022/07/14 18:58:09;;;;;;;9.50;3.20;;;;;;;22.19;58.10;100047.22;678111;1279;374270;-82
2022/07/14 19:13:21;;;;;;;6.70;3.80;;;;;;;21.81;59.46;100046.17;677978;1277;139014;-83
2022/07/14 19:28:25;;;;;;;4.30;2.10;;;;;;;21.45;60.70;100062.90;678201;1280;139454;-83
2022/07/14 19:43:28;;;;;;;5.00;2.00;;;;;;;20.99;60.87;100072.36;678440;1280;138319;-83
2022/07/14 19:58:33;;;;;;;5.10;1.60;;;;;;;20.67;61.98;100076.42;678314;1280;138896;-83
2022/07/14 20:13:37;;;;;;;3.70;1.30;;;;;;;20.40;62.86;100073.27;678686;1280;140684;-83
2022/07/14 20:44:04;;;;;;;65.10;30.80;;;;;;;19.42;65.99;100064.33;678954;1279;140124;-83
2022/07/14 20:59:08;;;;;;;14.40;6.70;;;;;;;19.16;66.87;100057.10;679010;1279;139095;-83
2022/07/14 21:14:13;;;;;;;5.40;3.20;;;;;;;18.93;67.81;100052.71;679121;1278;139153;-83
2022/07/14 21:29:16;;;;;;;11.90;5.60;;;;;;;18.50;68.88;100049.77;678504;1279;139026;-83
2022/07/14 21:44:19;;;;;;;16.80;7.00;;;;;;;17.72;69.90;100052.77;678663;1279;139993;-83
2022/07/14 21:59:24;;;;;;;13.70;6.50;;;;;;;17.27;71.36;100039.08;678999;1279;138416;-83
2022/07/14 22:14:28;;;;;;;8.80;3.70;;;;;;;16.85;72.97;100030.16;678795;1279;140371;-82
2022/07/14 22:29:31;;;;;;;8.10;2.90;;;;;;;16.50;75.02;100023.21;678379;1279;139439;-82
2022/07/14 22:44:34;;;;;;;3.60;2.30;;;;;;;16.03;76.27;100025.84;678577;1279;139777;-83
2022/07/14 22:59:37;;;;;;;29.60;10.60;;;;;;;16.01;77.73;100038.86;679197;1279;139428;-81
2022/07/14 23:30:04;;;;;;;7.00;3.00;;;;;;;15.23;79.86;100053.99;679013;1280;138719;-82
2022/07/14 23:45:08;;;;;;;5.60;1.90;;;;;;;15.04;80.22;100057.16;678795;1279;139659;-82
